createdAt,value
2019-03-04T00:01:32.619Z,93.60
2019-03-04T00:04:04.353Z,95.01
2019-03-04T00:06:36.007Z,94.94
2019-03-04T00:09:10.935Z,94.94
2019-03-04T00:11:43.254Z,94.60
2019-03-04T00:14:16.485Z,94.96
2019-03-04T00:16:48.062Z,94.96
2019-03-04T00:19:19.791Z,94.69
2019-03-04T00:21:51.756Z,95.29
2019-03-04T00:24:23.153Z,95.29
2019-03-04T00:26:54.908Z,95.37
2019-03-04T00:29:28.030Z,95.24
2019-03-04T00:31:59.511Z,95.27
2019-03-04T00:34:31.946Z,95.27
2019-03-04T00:37:05.079Z,95.27
2019-03-04T00:39:36.696Z,95.17
2019-03-04T00:42:08.233Z,95.26
2019-03-04T00:44:39.729Z,94.68
2019-03-04T00:47:11.325Z,94.68
2019-03-04T00:49:42.894Z,93.87
2019-03-04T00:52:14.575Z,94.04
2019-03-04T00:54:46.087Z,94.10
2019-03-04T00:57:19.116Z,94.58
2019-03-04T00:59:50.631Z,94.75
2019-03-04T01:02:22.257Z,94.75
2019-03-04T01:04:55.856Z,95.62
2019-03-04T01:07:27.480Z,96.29
2019-03-04T01:09:59.401Z,96.29
2019-03-04T01:12:30.737Z,96.53
2019-03-04T01:15:02.224Z,96.36
2019-03-04T01:17:34.195Z,96.36
2019-03-04T01:20:06.798Z,95.99
2019-03-04T01:22:38.533Z,96.52
2019-03-04T01:25:12.165Z,95.77
2019-03-04T01:27:43.702Z,95.27
2019-03-04T01:30:20.649Z,95.27
2019-03-04T01:32:52.702Z,94.89
2019-03-04T01:35:24.452Z,95.03
2019-03-04T01:37:56.112Z,94.10
2019-03-04T01:40:27.883Z,93.49
2019-03-04T01:42:59.364Z,93.49
2019-03-04T01:45:30.757Z,95.32
2019-03-04T01:48:02.049Z,97.20
2019-03-04T01:50:33.417Z,97.20
2019-03-04T01:53:05.397Z,97.98
2019-03-04T01:55:37.224Z,97.64
2019-03-04T01:58:08.404Z,97.64
2019-03-04T02:00:40.175Z,97.37
2019-03-04T02:03:11.977Z,97.34
2019-03-04T02:05:44.867Z,97.34
2019-03-04T02:08:16.723Z,82.42
2019-03-04T02:10:50.606Z,82.42
2019-03-04T02:13:22.147Z,80.99
2019-03-04T02:15:53.524Z,81.69
2019-03-04T02:18:25.218Z,82.62
2019-03-04T02:20:56.417Z,82.62
2019-03-04T02:23:27.898Z,83.17
2019-03-04T02:26:34.507Z,84.58
2019-03-04T02:29:06.658Z,82.67
2019-03-04T02:31:37.858Z,82.40
2019-03-04T02:34:09.209Z,82.40
2019-03-04T02:36:40.649Z,83.30
2019-03-04T02:39:12.293Z,82.74
2019-03-04T02:41:44.042Z,82.71
2019-03-04T02:44:19.625Z,81.84
2019-03-04T02:46:51.448Z,81.84
2019-03-04T02:49:25.035Z,82.48
2019-03-04T02:51:56.340Z,82.48
2019-03-04T02:54:27.843Z,82.92
2019-03-04T02:56:59.236Z,82.88
2019-03-04T02:59:30.826Z,84.54
2019-03-04T03:02:02.060Z,82.00
2019-03-04T03:04:34.605Z,82.00
2019-03-04T03:07:06.574Z,82.36
2019-03-04T03:09:38.168Z,82.69
2019-03-04T03:12:10.364Z,81.27
2019-03-04T03:14:42.288Z,82.02
2019-03-04T03:17:15.802Z,81.56
2019-03-04T03:19:47.358Z,80.97
2019-03-04T03:22:18.866Z,82.59
2019-03-04T03:24:50.529Z,82.59
2019-03-04T03:27:23.617Z,83.16
2019-03-04T03:29:56.749Z,83.21
2019-03-04T03:32:28.182Z,81.99
2019-03-04T03:34:59.885Z,81.99
2019-03-04T03:37:31.511Z,82.83
2019-03-04T03:40:03.412Z,82.71
2019-03-04T03:42:34.911Z,82.95
2019-03-04T03:45:07.286Z,82.05
2019-03-04T03:47:39.161Z,82.05
2019-03-04T03:50:12.410Z,82.32
2019-03-04T03:52:43.992Z,82.25
2019-03-04T03:55:16.175Z,81.99
2019-03-04T03:57:48.338Z,81.99
2019-03-04T04:00:20.348Z,82.09
2019-03-04T04:02:52.311Z,82.83
2019-03-04T04:05:24.248Z,82.79
2019-03-04T04:07:55.600Z,83.41
2019-03-04T04:10:27.486Z,83.41
2019-03-04T04:12:59.097Z,81.52
2019-03-04T04:15:31.116Z,82.33
2019-03-04T04:18:09.453Z,83.09
2019-03-04T04:20:41.447Z,82.71
2019-03-04T04:23:13.128Z,80.78
2019-03-04T04:25:45.028Z,80.55
2019-03-04T04:28:17.091Z,82.00
2019-03-04T04:30:48.820Z,82.00
2019-03-04T04:33:20.411Z,83.68
2019-03-04T04:35:52.739Z,83.68
2019-03-04T04:38:24.729Z,81.54
2019-03-04T04:40:56.816Z,81.54
2019-03-04T04:43:28.518Z,80.66
2019-03-04T04:46:00.215Z,80.66
2019-03-04T04:48:31.838Z,82.37
2019-03-04T04:51:03.231Z,82.37
2019-03-04T04:53:34.837Z,84.53
2019-03-04T04:56:10.731Z,81.71
2019-03-04T04:58:42.333Z,83.39
2019-03-04T05:01:14.067Z,82.17
2019-03-04T05:03:45.690Z,81.62
2019-03-04T05:06:17.422Z,81.62
2019-03-04T05:08:49.087Z,80.47
2019-03-04T05:11:20.920Z,81.45
2019-03-04T05:13:53.006Z,80.56
2019-03-04T05:16:25.195Z,80.56
2019-03-04T05:18:57.107Z,79.66
2019-03-04T05:21:30.546Z,79.87
2019-03-04T05:24:02.182Z,79.33
2019-03-04T05:26:33.595Z,79.52
2019-03-04T05:29:05.493Z,78.89
2019-03-04T05:31:37.285Z,79.43
2019-03-04T05:34:09.010Z,79.43
2019-03-04T05:36:41.188Z,79.09
2019-03-04T05:39:12.920Z,79.25
2019-03-04T05:41:44.594Z,79.25
2019-03-04T05:44:16.279Z,78.59
2019-03-04T05:46:47.844Z,78.59
2019-03-04T05:49:19.588Z,79.13
2019-03-04T05:51:51.221Z,79.15
2019-03-04T05:54:22.966Z,78.96
2019-03-04T05:56:54.487Z,78.96
2019-03-04T05:59:26.447Z,77.89
2019-03-04T06:02:05.968Z,76.14
2019-03-04T06:04:38.337Z,76.14
2019-03-04T06:07:28.533Z,75.93
2019-03-04T06:10:00.740Z,73.82
2019-03-04T06:12:32.582Z,73.92
2019-03-04T06:15:04.269Z,74.32
2019-03-04T06:17:35.651Z,74.32
2019-03-04T06:20:07.462Z,74.19
2019-03-04T06:22:38.973Z,73.98
2019-03-04T06:25:14.238Z,73.98
2019-03-04T06:27:45.790Z,73.73
2019-03-04T06:30:20.033Z,72.73
2019-03-04T06:32:51.944Z,73.88
2019-03-04T06:35:23.693Z,73.88
2019-03-04T06:37:55.460Z,71.08
2019-03-04T06:40:27.182Z,72.18
2019-03-04T06:42:59.028Z,72.18
2019-03-04T06:45:30.950Z,72.60
2019-03-04T06:48:02.632Z,73.11
2019-03-04T06:50:49.417Z,73.89
2019-03-04T06:53:40.047Z,73.25
2019-03-04T06:56:28.303Z,71.85
2019-03-04T06:59:06.500Z,71.85
2019-03-04T07:01:47.632Z,73.06
2019-03-04T07:04:30.710Z,72.34
2019-03-04T07:07:02.514Z,72.45
2019-03-04T07:09:34.139Z,71.48
2019-03-04T07:12:05.763Z,71.48
2019-03-04T07:14:38.179Z,71.25
2019-03-04T07:17:09.881Z,71.25
2019-03-04T07:19:42.375Z,71.27
2019-03-04T07:22:13.701Z,72.10
2019-03-04T07:24:45.341Z,72.10
2019-03-04T07:27:16.790Z,70.91
2019-03-04T07:29:48.194Z,70.94
2019-03-04T07:32:19.507Z,68.67
2019-03-04T07:34:51.282Z,68.74
2019-03-04T07:37:22.735Z,70.21
2019-03-04T07:39:54.540Z,70.21
2019-03-04T07:42:26.350Z,69.16
2019-03-04T07:44:58.151Z,69.97
2019-03-04T07:47:30.559Z,68.84
2019-03-04T07:50:02.204Z,68.84
2019-03-04T07:52:35.855Z,68.30
2019-03-04T07:55:07.725Z,67.70
2019-03-04T07:57:40.407Z,67.70
2019-03-04T08:00:13.677Z,65.77
2019-03-04T08:02:45.305Z,66.09
2019-03-04T08:05:16.841Z,65.29
2019-03-04T08:07:50.711Z,65.03
2019-03-04T08:11:17.753Z,65.03
2019-03-04T08:13:53.326Z,63.28
2019-03-04T08:16:24.942Z,63.54
2019-03-04T08:18:57.415Z,63.10
2019-03-04T08:21:29.827Z,63.93
2019-03-04T08:24:01.173Z,63.93
2019-03-04T08:26:32.705Z,61.07
2019-03-04T08:29:04.101Z,63.00
2019-03-04T08:31:35.966Z,61.36
2019-03-04T08:34:09.324Z,64.56
2019-03-04T08:36:41.633Z,64.56
2019-03-04T08:39:13.411Z,62.36
2019-03-04T08:41:44.772Z,62.51
2019-03-04T08:44:16.137Z,62.72
2019-03-04T08:46:47.396Z,62.95
2019-03-04T08:49:19.041Z,65.44
2019-03-04T08:51:51.369Z,65.82
2019-03-04T08:54:23.047Z,65.82
2019-03-04T08:57:03.595Z,63.21
2019-03-04T08:59:29.798Z,63.21
2019-03-04T09:02:01.427Z,62.21
2019-03-04T09:04:32.926Z,61.88
2019-03-04T09:07:04.817Z,61.81
2019-03-04T09:09:37.411Z,63.36
2019-03-04T09:12:08.764Z,62.85
2019-03-04T09:14:40.475Z,62.84
2019-03-04T09:17:12.210Z,62.57
2019-03-04T09:19:43.492Z,62.68
2019-03-04T09:22:15.511Z,63.13
2019-03-04T09:24:47.159Z,63.57
2019-03-04T09:27:18.787Z,63.57
2019-03-04T09:29:50.833Z,60.24
2019-03-04T09:32:22.242Z,61.43
2019-03-04T09:34:53.848Z,60.89
2019-03-04T09:37:25.579Z,61.50
2019-03-04T09:39:57.097Z,62.63
2019-03-04T09:42:29.140Z,60.95
2019-03-04T09:45:01.017Z,60.95
2019-03-04T09:47:32.991Z,61.57
2019-03-04T09:50:04.840Z,60.54
2019-03-04T09:52:36.569Z,60.54
2019-03-04T09:55:08.950Z,60.45
2019-03-04T09:57:40.970Z,60.45
2019-03-04T10:00:30.576Z,60.65
2019-03-04T10:03:22.456Z,62.38
2019-03-04T10:06:24.963Z,62.62
2019-03-04T10:09:07.930Z,62.62
2019-03-04T10:12:33.590Z,62.44
2019-03-04T10:15:15.228Z,60.49
2019-03-04T10:18:12.597Z,61.97
2019-03-04T10:21:33.912Z,61.97
2019-03-04T10:24:42.351Z,61.15
2019-03-04T10:28:10.300Z,61.15
2019-03-04T10:31:11.062Z,61.52
2019-03-04T10:34:20.496Z,61.73
2019-03-04T10:37:26.466Z,62.24
2019-03-04T10:40:40.794Z,62.24
2019-03-04T10:43:29.477Z,61.60
2019-03-04T10:46:23.710Z,60.66
2019-03-04T10:48:55.014Z,60.90
2019-03-04T10:51:26.276Z,61.76
2019-03-04T10:53:57.553Z,62.01
2019-03-04T10:56:29.302Z,61.04
2019-03-04T10:59:00.882Z,60.98
2019-03-04T11:01:32.453Z,61.47
2019-03-04T11:04:04.073Z,62.08
2019-03-04T11:06:35.956Z,62.45
2019-03-04T11:09:09.203Z,61.77
2019-03-04T11:11:41.967Z,61.18
2019-03-04T11:14:13.733Z,61.56
2019-03-04T11:16:46.244Z,61.11
2019-03-04T11:19:17.819Z,61.33
2019-03-04T11:21:49.752Z,62.01
2019-03-04T11:24:21.198Z,61.80
2019-03-04T11:26:53.204Z,62.89
2019-03-04T11:29:24.904Z,62.41
2019-03-04T11:31:56.946Z,61.27
2019-03-04T11:34:28.733Z,61.30
2019-03-04T11:37:00.751Z,62.00
2019-03-04T11:39:54.277Z,62.00
2019-03-04T11:42:26.306Z,61.21
2019-03-04T11:44:57.970Z,61.72
2019-03-04T11:47:29.686Z,61.67
2019-03-04T11:50:01.278Z,61.76
2019-03-04T11:52:33.550Z,62.25
2019-03-04T11:55:06.412Z,62.25
2019-03-04T11:57:38.582Z,61.14
2019-03-04T12:00:15.157Z,60.99
2019-03-04T12:02:47.217Z,62.01
2019-03-04T12:05:20.084Z,62.01
2019-03-04T12:07:52.213Z,62.03
2019-03-04T12:10:24.178Z,62.03
2019-03-04T12:12:55.891Z,61.21
2019-03-04T12:15:27.631Z,61.21
2019-03-04T12:17:59.567Z,60.54
2019-03-04T12:20:31.223Z,59.91
2019-03-04T12:23:02.976Z,60.83
2019-03-04T12:25:35.082Z,60.83
2019-03-04T12:28:06.582Z,62.47
2019-03-04T12:30:38.305Z,62.89
2019-03-04T12:33:11.070Z,62.78
2019-03-04T12:35:42.783Z,62.78
2019-03-04T12:38:14.313Z,63.59
2019-03-04T12:40:46.164Z,64.17
2019-03-04T12:43:17.865Z,64.34
2019-03-04T12:45:51.175Z,64.21
2019-03-04T12:48:23.127Z,64.88
2019-03-04T12:50:54.951Z,65.82
2019-03-04T12:53:26.485Z,65.82
2019-03-04T12:55:58.548Z,66.64
2019-03-04T12:58:30.018Z,66.32
2019-03-04T13:01:02.353Z,66.58
2019-03-04T13:03:33.969Z,67.16
2019-03-04T13:06:08.104Z,67.59
2019-03-04T13:08:40.156Z,67.77
2019-03-04T13:11:12.925Z,67.14
2019-03-04T13:13:44.472Z,67.37
2019-03-04T13:16:16.567Z,67.37
2019-03-04T13:18:48.173Z,67.25
2019-03-04T13:21:20.375Z,67.24
2019-03-04T13:23:52.203Z,67.24
2019-03-04T13:26:24.176Z,66.95
2019-03-04T13:28:55.678Z,68.04
2019-03-04T13:31:27.337Z,67.54
2019-03-04T13:33:59.396Z,68.71
2019-03-04T13:36:31.147Z,68.89
2019-03-04T13:39:02.649Z,69.29
2019-03-04T13:41:38.464Z,70.04
2019-03-04T13:44:10.145Z,71.32
2019-03-04T13:46:41.947Z,71.46
2019-03-04T13:49:15.354Z,71.46
2019-03-04T13:51:47.327Z,71.56
2019-03-04T13:54:19.814Z,71.79
2019-03-04T13:56:51.640Z,72.03
2019-03-04T13:59:23.458Z,72.39
2019-03-04T14:01:55.108Z,72.56
2019-03-04T14:04:26.365Z,72.59
2019-03-04T14:06:58.111Z,72.87
2019-03-04T14:09:29.801Z,72.94
2019-03-04T14:12:01.730Z,73.31
2019-03-04T14:14:35.757Z,73.35
2019-03-04T14:17:07.776Z,73.58
2019-03-04T14:19:39.644Z,73.44
2019-03-04T14:22:11.326Z,73.27
2019-03-04T14:24:43.121Z,73.18
2019-03-04T14:27:16.537Z,73.66
2019-03-04T14:29:48.306Z,73.65
2019-03-04T14:32:20.147Z,73.91
2019-03-04T14:34:51.635Z,73.91
2019-03-04T14:37:23.155Z,73.71
2019-03-04T14:39:54.834Z,70.85
2019-03-04T14:42:26.592Z,70.85
2019-03-04T14:44:59.159Z,69.92
2019-03-04T14:47:31.094Z,69.92
2019-03-04T14:50:09.537Z,70.52
2019-03-04T14:52:36.099Z,71.24
2019-03-04T14:55:09.342Z,71.30
2019-03-04T14:57:41.078Z,71.30
2019-03-04T15:00:25.314Z,71.08
2019-03-04T15:02:57.566Z,70.84
2019-03-04T15:05:29.511Z,71.33
2019-03-04T15:08:01.841Z,71.74
2019-03-04T15:10:33.772Z,72.55
2019-03-04T15:13:05.651Z,72.77
2019-03-04T15:15:37.274Z,72.43
2019-03-04T15:18:09.332Z,72.70
2019-03-04T15:20:41.021Z,72.70
2019-03-04T15:23:12.955Z,73.01
2019-03-04T15:25:44.869Z,74.65
2019-03-04T15:28:18.585Z,77.32
2019-03-04T15:30:52.154Z,79.64
2019-03-04T15:33:23.991Z,80.47
2019-03-04T15:35:56.618Z,80.55
2019-03-04T15:38:28.621Z,80.55
2019-03-04T15:41:00.416Z,80.16
2019-03-04T15:43:32.437Z,79.57
2019-03-04T15:46:04.330Z,79.57
2019-03-04T15:48:36.359Z,79.47
2019-03-04T15:51:07.997Z,79.93
2019-03-04T15:53:39.597Z,79.93
2019-03-04T15:56:11.301Z,80.28
2019-03-04T15:58:44.360Z,80.63
2019-03-04T16:01:16.659Z,79.15
2019-03-04T16:03:48.600Z,77.96
2019-03-04T16:06:20.584Z,76.75
2019-03-04T16:08:52.459Z,77.23
2019-03-04T16:11:23.982Z,75.89
2019-03-04T16:13:56.282Z,77.03
2019-03-04T16:16:29.288Z,77.67
2019-03-04T16:19:01.071Z,77.30
2019-03-04T16:21:32.472Z,77.30
2019-03-04T16:24:03.970Z,78.09
2019-03-04T16:26:35.939Z,78.96
2019-03-04T16:29:07.881Z,78.67
2019-03-04T16:31:39.426Z,78.42
2019-03-04T16:34:13.678Z,77.47
2019-03-04T16:36:45.191Z,77.47
2019-03-04T16:39:20.630Z,78.00
2019-03-04T16:41:52.376Z,78.00
2019-03-04T16:44:23.825Z,78.00
2019-03-04T16:46:55.805Z,79.20
2019-03-04T16:49:27.407Z,81.09
2019-03-04T16:51:59.199Z,82.48
2019-03-04T16:54:30.784Z,82.27
2019-03-04T16:57:04.547Z,82.15
2019-03-04T16:59:35.954Z,82.35
2019-03-04T17:02:07.703Z,82.35
2019-03-04T17:04:39.567Z,81.80
2019-03-04T17:07:11.810Z,81.95
2019-03-04T17:09:43.799Z,83.08
2019-03-04T17:12:15.614Z,83.08
2019-03-04T17:14:47.501Z,82.73
2019-03-04T17:17:19.189Z,82.18
2019-03-04T17:19:54.309Z,82.11
2019-03-04T17:22:25.887Z,82.73
2019-03-04T17:24:57.983Z,83.94
2019-03-04T17:27:29.744Z,84.58
2019-03-04T17:30:01.400Z,84.78
2019-03-04T17:32:33.309Z,84.78
2019-03-04T17:35:05.884Z,85.12
2019-03-04T17:37:38.621Z,86.44
2019-03-04T17:40:11.737Z,86.44
2019-03-04T17:42:43.654Z,86.64
2019-03-04T17:45:17.057Z,86.64
2019-03-04T17:47:48.725Z,85.97
2019-03-04T17:50:27.062Z,85.33
2019-03-04T17:52:59.022Z,85.26
2019-03-04T17:55:30.860Z,86.15
2019-03-04T17:58:02.519Z,86.15
2019-03-04T18:00:34.785Z,86.94
2019-03-04T18:03:06.934Z,87.97
2019-03-04T18:05:38.625Z,87.97
2019-03-04T18:08:10.588Z,88.56
2019-03-04T18:10:42.405Z,90.18
2019-03-04T18:13:14.622Z,90.90
2019-03-04T18:15:49.116Z,91.40
2019-03-04T18:18:20.585Z,90.73
2019-03-04T18:20:52.614Z,89.79
2019-03-04T18:23:24.155Z,90.11
2019-03-04T18:26:06.086Z,90.12
2019-03-04T18:28:57.723Z,90.30
2019-03-04T18:31:59.382Z,90.30
2019-03-04T18:35:17.809Z,89.84
2019-03-04T18:38:30.101Z,90.51
2019-03-04T18:41:48.417Z,90.51
2019-03-04T18:44:57.430Z,91.18
2019-03-04T18:48:10.142Z,90.84
2019-03-04T18:50:42.485Z,91.50
2019-03-04T18:53:15.036Z,91.88
2019-03-04T18:55:46.670Z,91.88
2019-03-04T18:58:18.418Z,92.28
2019-03-04T19:00:50.220Z,91.66
2019-03-04T19:03:21.990Z,92.32
2019-03-04T19:05:53.856Z,91.61
2019-03-04T19:08:26.365Z,92.08
2019-03-04T19:10:57.733Z,92.11
2019-03-04T19:13:30.999Z,91.71
2019-03-04T19:16:02.757Z,91.43
2019-03-04T19:18:36.210Z,91.43
2019-03-04T19:21:07.966Z,90.79
2019-03-04T19:23:39.716Z,90.79
2019-03-04T19:26:12.564Z,89.74
2019-03-04T19:28:43.977Z,90.35
2019-03-04T19:31:15.787Z,90.35
2019-03-04T19:33:47.484Z,90.69
2019-03-04T19:36:19.299Z,91.64
2019-03-04T19:38:50.912Z,91.05
2019-03-04T19:41:22.854Z,90.37
2019-03-04T19:43:54.564Z,90.37
2019-03-04T19:46:26.221Z,90.49
2019-03-04T19:48:58.194Z,90.25
2019-03-04T19:51:30.013Z,91.32
2019-03-04T19:54:02.001Z,90.66
2019-03-04T19:56:33.825Z,90.66
2019-03-04T19:59:05.440Z,90.20
2019-03-04T20:01:37.396Z,90.20
2019-03-04T20:04:09.049Z,90.12
2019-03-04T20:06:40.602Z,90.12
2019-03-04T20:09:12.469Z,89.84
2019-03-04T20:11:44.538Z,89.84
2019-03-04T20:14:16.224Z,89.47
2019-03-04T20:16:48.056Z,89.93
2019-03-04T20:19:19.841Z,89.93
2019-03-04T20:21:51.697Z,89.89
2019-03-04T20:24:23.480Z,90.43
2019-03-04T20:26:57.238Z,90.43
2019-03-04T20:29:29.067Z,90.61
2019-03-04T20:32:01.402Z,90.14
2019-03-04T20:34:32.874Z,90.12
2019-03-04T20:37:04.638Z,90.72
2019-03-04T20:39:36.391Z,91.93
2019-03-04T20:42:08.342Z,91.78
2019-03-04T20:44:39.944Z,91.47
2019-03-04T20:47:11.800Z,91.22
2019-03-04T20:49:43.487Z,90.53
2019-03-04T20:52:15.530Z,90.62
2019-03-04T20:54:47.162Z,90.62
2019-03-04T20:57:20.754Z,90.59
2019-03-04T20:59:52.672Z,90.59
2019-03-04T21:02:24.727Z,90.16
2019-03-04T21:04:56.307Z,91.34
2019-03-04T21:07:28.095Z,91.34
2019-03-04T21:09:59.742Z,90.85
2019-03-04T21:12:33.040Z,91.24
2019-03-04T21:15:05.073Z,91.35
2019-03-04T21:17:37.417Z,91.35
2019-03-04T21:20:09.997Z,92.11
2019-03-04T21:22:42.668Z,91.51
2019-03-04T21:25:37.657Z,91.51
2019-03-04T21:28:13.141Z,91.56
2019-03-04T21:31:25.173Z,91.36
2019-03-04T21:34:34.891Z,91.96
2019-03-04T21:37:15.443Z,91.70
2019-03-04T21:39:48.418Z,91.84
2019-03-04T21:42:31.290Z,91.58
2019-03-04T21:45:51.569Z,91.58
2019-03-04T21:48:39.286Z,92.11
2019-03-04T21:51:38.432Z,92.12
2019-03-04T21:54:10.877Z,92.13
2019-03-04T21:57:13.093Z,92.13
2019-03-04T21:59:44.855Z,91.78
2019-03-04T22:02:24.327Z,90.83
2019-03-04T22:04:56.540Z,90.85
2019-03-04T22:07:28.997Z,90.85
2019-03-04T22:10:00.854Z,90.72
2019-03-04T22:12:32.580Z,90.54
2019-03-04T22:15:03.964Z,90.54
2019-03-04T22:17:37.025Z,90.34
2019-03-04T22:20:09.789Z,90.16
2019-03-04T22:22:41.545Z,90.21
2019-03-04T22:25:13.490Z,90.21
2019-03-04T22:27:45.667Z,90.25
2019-03-04T22:30:18.491Z,90.25
2019-03-04T22:32:50.262Z,90.32
2019-03-04T22:35:22.227Z,90.30
2019-03-04T22:37:53.976Z,90.24
2019-03-04T22:40:25.793Z,90.20
2019-03-04T22:42:57.415Z,90.20
2019-03-04T22:45:29.131Z,90.48
2019-03-04T22:48:00.867Z,91.17
2019-03-04T22:50:32.379Z,91.65
2019-03-04T22:53:04.017Z,91.65
2019-03-04T22:55:37.450Z,91.06
2019-03-04T22:58:09.244Z,90.85
2019-03-04T23:01:30.032Z,91.39
2019-03-04T23:04:32.174Z,91.39
2019-03-04T23:07:12.857Z,91.16
2019-03-04T23:09:54.557Z,90.37
2019-03-04T23:12:31.465Z,90.37
2019-03-04T23:15:03.248Z,91.57
2019-03-04T23:17:35.954Z,91.57
2019-03-04T23:20:07.773Z,91.19
2019-03-04T23:22:39.152Z,90.14
2019-03-04T23:25:11.845Z,89.87
2019-03-04T23:27:43.352Z,89.87
2019-03-04T23:30:16.111Z,90.72
2019-03-04T23:32:47.581Z,90.80
2019-03-04T23:35:19.226Z,90.80
2019-03-04T23:37:50.974Z,90.64
2019-03-04T23:40:22.629Z,90.64
2019-03-04T23:42:54.464Z,91.10
2019-03-04T23:45:26.236Z,91.10
2019-03-04T23:47:57.824Z,91.33
2019-03-04T23:50:29.269Z,90.77
2019-03-04T23:53:01.623Z,90.33
2019-03-04T23:55:33.387Z,90.63
2019-03-04T23:58:05.317Z,90.63
